createdAt,value
2023-04-09T00:00:30.885Z,519.8461
2023-04-09T00:01:32.527Z,518.8461
2023-04-09T00:02:34.134Z,515.2308
2023-04-09T00:03:35.975Z,512.9231
2023-04-09T00:04:37.512Z,513.3846
2023-04-09T00:05:39.045Z,513.0769
2023-04-09T00:06:40.729Z,508.0000
2023-04-09T00:07:44.498Z,505.1538
2023-04-09T00:08:44.001Z,510.5385
2023-04-09T00:09:45.795Z,511.7692
2023-04-09T00:10:47.419Z,510.5385
2023-04-09T00:11:49.014Z,509.6154
2023-04-09T00:12:50.658Z,503.0000
2023-04-09T00:13:52.355Z,490.6923
2023-04-09T00:14:53.949Z,484.0769
2023-04-09T00:15:55.639Z,494.1538
2023-04-09T00:16:57.327Z,502.0000
2023-04-09T00:17:58.941Z,505.3077
2023-04-09T00:19:00.566Z,514.4615
2023-04-09T00:20:02.230Z,516.7692
2023-04-09T00:21:03.874Z,515.5385
2023-04-09T00:22:05.538Z,515.8461
2023-04-09T00:23:07.217Z,514.4615
2023-04-09T00:24:08.741Z,515.5385
2023-04-09T00:25:10.451Z,514.1539
2023-04-09T00:26:12.178Z,507.6154
2023-04-09T00:27:13.870Z,505.2308
2023-04-09T00:28:15.471Z,506.0000
2023-04-09T00:29:17.208Z,507.0000
2023-04-09T00:30:18.800Z,509.0000
2023-04-09T00:31:20.877Z,506.6154
2023-04-09T00:32:22.075Z,501.5385
2023-04-09T00:33:23.652Z,497.4615
2023-04-09T00:34:25.336Z,489.5385
2023-04-09T00:35:26.974Z,484.1538
2023-04-09T00:36:28.728Z,488.6154
2023-04-09T00:37:30.315Z,491.7692
2023-04-09T00:38:31.999Z,494.4615
2023-04-09T00:39:33.621Z,498.6923
2023-04-09T00:40:35.255Z,500.3077
2023-04-09T00:41:37.009Z,499.9231
2023-04-09T00:42:38.590Z,502.1538
2023-04-09T00:43:40.274Z,504.6154
2023-04-09T00:44:41.810Z,503.9231
2023-04-09T00:45:43.536Z,504.9231
2023-04-09T00:46:45.106Z,502.9231
2023-04-09T00:47:47.383Z,502.8462
2023-04-09T00:48:48.510Z,503.3077
2023-04-09T00:49:50.179Z,501.4615
2023-04-09T00:50:51.748Z,504.0000
2023-04-09T00:51:53.387Z,502.9231
2023-04-09T00:52:55.154Z,503.9231
2023-04-09T00:53:56.788Z,504.3846
2023-04-09T00:54:58.439Z,503.1538
2023-04-09T00:56:00.031Z,496.6923
2023-04-09T00:57:01.678Z,485.5385
2023-04-09T00:58:03.432Z,476.3846
2023-04-09T00:59:05.370Z,493.7692
2023-04-09T01:00:06.718Z,496.6154
2023-04-09T01:01:08.398Z,495.7692
2023-04-09T01:02:10.922Z,496.5385
2023-04-09T01:03:12.029Z,501.9231
2023-04-09T01:04:13.346Z,506.2308
2023-04-09T01:05:14.928Z,506.4615
2023-04-09T01:06:16.538Z,506.0000
2023-04-09T01:07:18.281Z,505.0769
2023-04-09T01:08:20.103Z,505.6154
2023-04-09T01:09:21.565Z,505.8462
2023-04-09T01:10:23.206Z,508.3077
2023-04-09T01:11:24.982Z,505.5385
2023-04-09T01:12:26.511Z,506.1538
2023-04-09T01:13:28.223Z,504.7692
2023-04-09T01:14:29.940Z,505.4615
2023-04-09T01:15:31.524Z,502.3077
2023-04-09T01:16:33.136Z,497.4615
2023-04-09T01:17:34.892Z,491.5385
2023-04-09T01:18:36.505Z,488.0769
2023-04-09T01:19:38.124Z,479.6154
2023-04-09T01:20:39.828Z,486.9231
2023-04-09T01:21:41.423Z,487.6923
2023-04-09T01:22:43.078Z,489.5385
2023-04-09T01:23:44.791Z,492.5385
2023-04-09T01:24:46.398Z,496.0769
2023-04-09T01:25:48.068Z,498.9231
2023-04-09T01:26:49.701Z,498.4615
2023-04-09T01:27:51.345Z,498.1538
2023-04-09T01:28:53.459Z,499.8462
2023-04-09T01:29:54.675Z,501.6923
2023-04-09T01:30:56.455Z,504.6154
2023-04-09T01:31:57.966Z,503.6923
2023-04-09T01:33:00.036Z,501.3846
2023-04-09T01:34:01.414Z,502.1538
2023-04-09T01:35:02.905Z,504.9231
2023-04-09T01:36:04.719Z,506.0769
2023-04-09T01:37:06.294Z,503.4615
2023-04-09T01:38:07.898Z,495.3846
2023-04-09T01:39:09.611Z,489.0000
2023-04-09T01:40:11.340Z,484.4615
2023-04-09T01:41:12.763Z,475.9231
2023-04-09T01:42:14.450Z,473.2308
2023-04-09T01:43:16.089Z,484.1538
2023-04-09T01:44:17.733Z,493.0000
2023-04-09T01:45:19.460Z,498.0000
2023-04-09T01:46:21.134Z,501.4615
2023-04-09T01:47:22.701Z,498.9231
2023-04-09T01:48:24.355Z,502.6923
2023-04-09T01:49:26.155Z,504.6923
2023-04-09T01:50:27.827Z,505.9231
2023-04-09T01:51:29.362Z,503.2308
2023-04-09T01:52:31.778Z,503.9231
2023-04-09T01:53:32.756Z,503.5385
2023-04-09T01:54:34.509Z,503.3077
2023-04-09T01:55:36.046Z,503.7692
2023-04-09T01:56:37.760Z,502.6154
2023-04-09T01:57:39.326Z,500.8462
2023-04-09T01:58:41.040Z,499.1538
2023-04-09T01:59:42.646Z,489.2308
2023-04-09T02:00:45.286Z,482.3077
2023-04-09T02:01:46.966Z,477.4615
2023-04-09T02:02:47.749Z,480.9231
2023-04-09T02:03:49.389Z,484.2308
2023-04-09T02:04:51.165Z,487.7692
2023-04-09T02:05:52.939Z,491.2308
2023-04-09T02:06:54.257Z,496.1538
2023-04-09T02:07:55.895Z,502.5385
2023-04-09T02:08:57.613Z,504.9231
2023-04-09T02:09:59.283Z,503.9231
2023-04-09T02:11:00.840Z,508.9231
2023-04-09T02:12:02.542Z,508.6154
2023-04-09T02:13:04.157Z,509.0000
2023-04-09T02:14:05.990Z,509.9231
2023-04-09T02:15:07.595Z,509.6154
2023-04-09T02:16:09.178Z,508.9231
2023-04-09T02:17:10.796Z,508.7692
2023-04-09T02:18:12.451Z,508.5385
2023-04-09T02:19:14.076Z,504.8462
2023-04-09T02:20:15.820Z,505.2308
2023-04-09T02:21:17.353Z,500.8462
2023-04-09T02:22:19.019Z,493.7692
2023-04-09T02:23:20.728Z,478.2308
2023-04-09T02:24:22.447Z,483.9231
2023-04-09T02:25:24.078Z,490.0769
2023-04-09T02:26:25.642Z,495.0769
2023-04-09T02:27:27.406Z,496.8462
2023-04-09T02:28:29.049Z,498.7692
2023-04-09T02:29:30.649Z,503.0769
2023-04-09T02:30:32.343Z,505.7692
2023-04-09T02:31:34.023Z,504.7692
2023-04-09T02:32:35.744Z,506.7692
2023-04-09T02:33:37.353Z,506.7692
2023-04-09T02:34:39.059Z,505.0000
2023-04-09T02:35:40.670Z,505.1538
2023-04-09T02:36:42.334Z,506.9231
2023-04-09T02:37:44.014Z,505.6154
2023-04-09T02:38:45.604Z,504.3077
2023-04-09T02:39:47.406Z,502.4615
2023-04-09T02:40:48.948Z,504.3846
2023-04-09T02:41:50.642Z,505.9231
2023-04-09T02:42:52.172Z,499.0769
2023-04-09T02:43:53.910Z,489.5385
2023-04-09T02:44:55.577Z,484.8462
2023-04-09T02:45:57.459Z,482.6154
2023-04-09T02:46:58.780Z,488.3846
2023-04-09T02:48:00.501Z,495.3846
2023-04-09T02:49:02.858Z,492.2308
2023-04-09T02:50:03.897Z,496.0000
2023-04-09T02:51:05.597Z,504.3077
2023-04-09T02:52:07.114Z,503.8462
2023-04-09T02:53:08.894Z,502.6923
2023-04-09T02:54:10.412Z,504.1538
2023-04-09T02:55:12.069Z,509.4615
2023-04-09T02:56:13.815Z,514.6923
2023-04-09T02:57:15.261Z,522.3077
2023-04-09T02:58:16.992Z,531.0000
2023-04-09T02:59:18.727Z,533.8461
2023-04-09T03:00:20.348Z,532.3077
2023-04-09T03:01:22.135Z,533.0769
2023-04-09T03:02:23.818Z,532.4615
2023-04-09T03:03:26.040Z,521.6154
2023-04-09T03:04:26.980Z,516.6923
2023-04-09T03:05:28.520Z,511.0000
2023-04-09T03:06:30.294Z,508.4615
2023-04-09T03:07:31.856Z,504.0000
2023-04-09T03:08:33.504Z,503.0769
2023-04-09T03:09:35.157Z,505.7692
2023-04-09T03:10:36.820Z,511.4615
2023-04-09T03:11:38.536Z,514.2308
2023-04-09T03:12:40.128Z,518.5385
2023-04-09T03:13:41.820Z,520.3846
2023-04-09T03:14:43.483Z,519.6154
2023-04-09T03:15:45.125Z,525.9231
2023-04-09T03:16:46.781Z,527.2308
2023-04-09T03:17:48.433Z,525.5385
2023-04-09T03:18:50.256Z,525.8461
2023-04-09T03:19:51.686Z,524.3077
2023-04-09T03:20:53.341Z,532.0769
2023-04-09T03:21:55.031Z,531.6154
2023-04-09T03:22:56.638Z,532.5385
2023-04-09T03:23:58.321Z,528.4615
2023-04-09T03:24:59.983Z,527.2308
2023-04-09T03:26:01.616Z,527.6923
2023-04-09T03:27:03.362Z,522.5385
2023-04-09T03:28:04.876Z,509.2308
2023-04-09T03:29:06.616Z,499.6154
2023-04-09T03:30:08.235Z,502.2308
2023-04-09T03:31:09.964Z,499.8462
2023-04-09T03:32:11.545Z,506.9231
2023-04-09T03:33:13.187Z,522.8461
2023-04-09T03:34:14.836Z,528.6154
2023-04-09T03:35:16.464Z,533.8461
2023-04-09T03:36:18.091Z,535.1539
2023-04-09T03:37:19.818Z,530.0769
2023-04-09T03:38:21.408Z,525.9231
2023-04-09T03:39:23.121Z,530.6923
2023-04-09T03:40:24.740Z,530.0000
2023-04-09T03:41:26.469Z,530.4615
2023-04-09T03:42:27.998Z,529.3077
2023-04-09T03:43:29.703Z,526.8461
2023-04-09T03:44:31.954Z,525.1539
2023-04-09T03:45:33.017Z,526.6154
2023-04-09T03:46:34.750Z,528.2308
2023-04-09T03:47:36.354Z,523.6154
2023-04-09T03:48:38.009Z,511.1538
2023-04-09T03:49:39.614Z,510.7692
2023-04-09T03:50:41.252Z,502.8462
2023-04-09T03:51:42.937Z,507.5385
2023-04-09T03:52:44.651Z,511.6154
2023-04-09T03:53:46.335Z,514.2308
2023-04-09T03:54:47.962Z,523.7692
2023-04-09T03:55:49.626Z,533.2308
2023-04-09T03:56:52.068Z,531.4615
2023-04-09T03:57:52.934Z,529.5385
2023-04-09T03:58:54.881Z,532.5385
2023-04-09T03:59:56.248Z,531.1539
2023-04-09T04:00:57.769Z,536.0000
2023-04-09T04:01:59.549Z,534.0000
2023-04-09T04:03:01.372Z,536.3846
2023-04-09T04:04:02.941Z,531.6923
2023-04-09T04:05:04.493Z,530.9231
2023-04-09T04:06:06.160Z,534.5385
2023-04-09T04:07:07.804Z,532.1539
2023-04-09T04:08:09.423Z,533.0000
2023-04-09T04:09:11.023Z,526.5385
2023-04-09T04:10:12.794Z,520.3077
2023-04-09T04:11:14.374Z,513.6154
2023-04-09T04:12:16.020Z,507.8462
2023-04-09T04:13:17.707Z,508.1538
2023-04-09T04:14:19.355Z,512.2308
2023-04-09T04:15:21.044Z,521.9231
2023-04-09T04:16:22.697Z,525.7692
2023-04-09T04:17:24.341Z,527.6923
2023-04-09T04:18:25.957Z,532.6923
2023-04-09T04:19:27.614Z,531.2308
2023-04-09T04:20:29.244Z,533.1539
2023-04-09T04:21:30.919Z,530.2308
2023-04-09T04:22:32.602Z,536.6154
2023-04-09T04:23:34.250Z,534.8461
2023-04-09T04:24:35.901Z,534.1539
2023-04-09T04:25:37.541Z,529.9231
2023-04-09T04:26:39.229Z,532.5385
2023-04-09T04:27:40.893Z,539.3077
2023-04-09T04:28:42.556Z,536.0769
2023-04-09T04:29:44.141Z,528.8461
2023-04-09T04:30:45.867Z,522.5385
2023-04-09T04:31:47.497Z,512.4615
2023-04-09T04:32:49.097Z,512.5385
2023-04-09T04:33:50.782Z,511.6923
2023-04-09T04:34:52.425Z,506.8462
2023-04-09T04:35:54.144Z,507.2308
2023-04-09T04:36:55.633Z,513.9231
2023-04-09T04:37:57.399Z,524.1539
2023-04-09T04:38:59.067Z,536.5385
2023-04-09T04:40:00.666Z,535.8461
2023-04-09T04:41:02.306Z,532.7692
2023-04-09T04:42:03.947Z,531.0769
2023-04-09T04:43:05.665Z,527.1539
2023-04-09T04:44:07.311Z,535.3846
2023-04-09T04:45:09.052Z,539.0769
2023-04-09T04:46:10.622Z,535.3846
2023-04-09T04:47:12.244Z,530.5385
2023-04-09T04:48:13.917Z,533.6154
2023-04-09T04:49:16.324Z,529.3846
2023-04-09T04:50:17.256Z,529.5385
2023-04-09T04:51:18.841Z,531.0769
2023-04-09T04:52:20.475Z,523.2308
2023-04-09T04:53:22.139Z,514.9231
2023-04-09T04:54:23.842Z,506.2308
2023-04-09T04:55:26.505Z,507.0769
2023-04-09T04:56:27.114Z,515.4615
2023-04-09T04:57:28.939Z,514.6923
2023-04-09T04:58:30.423Z,518.1539
2023-04-09T04:59:32.200Z,520.7692
2023-04-09T05:00:33.734Z,526.0000
2023-04-09T05:01:35.418Z,523.9231
2023-04-09T05:02:37.186Z,528.3846
2023-04-09T05:03:38.779Z,529.3077
2023-04-09T05:04:40.392Z,525.3846
2023-04-09T05:05:42.002Z,520.3077
2023-04-09T05:06:43.662Z,525.4615
2023-04-09T05:07:45.306Z,527.3846
2023-04-09T05:08:47.009Z,526.0769
2023-04-09T05:09:48.626Z,521.5385
2023-04-09T05:10:50.220Z,521.3077
2023-04-09T05:11:51.930Z,524.0769
2023-04-09T05:12:53.611Z,532.9231
2023-04-09T05:13:55.186Z,527.1539
2023-04-09T05:14:56.986Z,511.0769
2023-04-09T05:15:58.630Z,507.0769
2023-04-09T05:17:00.216Z,505.9231
2023-04-09T05:18:01.925Z,500.0769
2023-04-09T05:19:03.528Z,509.7692
2023-04-09T05:20:05.949Z,516.6923
2023-04-09T05:21:07.457Z,516.9231
2023-04-09T05:22:08.464Z,520.6154
2023-04-09T05:23:10.082Z,530.8461
2023-04-09T05:24:11.737Z,526.6923
2023-04-09T05:25:13.410Z,526.6923
2023-04-09T05:26:14.995Z,528.9231
2023-04-09T05:27:16.722Z,536.3846
2023-04-09T05:28:18.434Z,529.6923
2023-04-09T05:29:20.058Z,525.8461
2023-04-09T05:30:21.724Z,525.8461
2023-04-09T05:31:23.257Z,528.1539
2023-04-09T05:32:25.221Z,530.4615
2023-04-09T05:33:26.679Z,531.8461
2023-04-09T05:34:28.265Z,531.2308
2023-04-09T05:35:29.983Z,529.2308
2023-04-09T05:36:31.577Z,521.4615
2023-04-09T05:37:33.499Z,510.5385
2023-04-09T05:38:34.965Z,494.0769
2023-04-09T05:39:37.502Z,494.7692
2023-04-09T05:40:38.298Z,506.3077
2023-04-09T05:41:39.857Z,516.9231
2023-04-09T05:42:41.537Z,520.2308
2023-04-09T05:43:43.439Z,527.8461
2023-04-09T05:44:44.857Z,527.4615
2023-04-09T05:45:46.718Z,532.5385
2023-04-09T05:46:48.189Z,528.5385
2023-04-09T05:47:49.824Z,532.0000
2023-04-09T05:48:51.595Z,533.3077
2023-04-09T05:49:53.246Z,532.0000
2023-04-09T05:50:55.841Z,531.3846
2023-04-09T05:51:56.517Z,529.9231
2023-04-09T05:52:58.191Z,531.7692
2023-04-09T05:53:59.858Z,534.8461
2023-04-09T05:55:01.492Z,528.0769
2023-04-09T05:56:03.126Z,520.7692
2023-04-09T05:57:04.811Z,528.0769
2023-04-09T05:58:06.499Z,522.0000
2023-04-09T05:59:07.995Z,518.6154
2023-04-09T06:00:10.102Z,514.6154
2023-04-09T06:01:11.356Z,512.0769
2023-04-09T06:02:13.004Z,510.1538
2023-04-09T06:03:14.777Z,522.7692
2023-04-09T06:04:16.406Z,529.0000
2023-04-09T06:05:18.581Z,534.3846
2023-04-09T06:06:19.632Z,535.1539
2023-04-09T06:07:21.241Z,531.1539
2023-04-09T06:08:22.958Z,531.0000
2023-04-09T06:09:24.612Z,536.1539
2023-04-09T06:10:26.537Z,539.0000
2023-04-09T06:11:28.009Z,537.3846
2023-04-09T06:12:29.911Z,532.2308
2023-04-09T06:13:31.202Z,539.3846
2023-04-09T06:14:32.882Z,539.0769
2023-04-09T06:15:34.555Z,536.9231
2023-04-09T06:16:36.130Z,538.0769
2023-04-09T06:17:37.804Z,534.3077
2023-04-09T06:18:39.611Z,527.5385
2023-04-09T06:19:41.170Z,517.7692
2023-04-09T06:20:42.911Z,512.6154
2023-04-09T06:21:44.297Z,503.3077
2023-04-09T06:22:45.987Z,506.3077
2023-04-09T06:23:47.642Z,519.6154
2023-04-09T06:24:49.279Z,523.7692
2023-04-09T06:25:50.972Z,523.0769
2023-04-09T06:26:52.607Z,528.2308
2023-04-09T06:27:54.212Z,530.0000
2023-04-09T06:28:55.877Z,533.4615
2023-04-09T06:29:57.550Z,533.9231
2023-04-09T06:30:59.300Z,536.1539
2023-04-09T06:32:00.786Z,537.6923
2023-04-09T06:33:02.572Z,538.3846
2023-04-09T06:34:04.103Z,534.2308
2023-04-09T06:35:05.826Z,533.6923
2023-04-09T06:36:08.484Z,536.8461
2023-04-09T06:37:09.021Z,532.7692
2023-04-09T06:38:11.362Z,532.4615
2023-04-09T06:39:13.168Z,525.9231
2023-04-09T06:40:14.071Z,524.7692
2023-04-09T06:41:15.930Z,516.6154
2023-04-09T06:42:17.373Z,518.1539
2023-04-09T06:43:18.964Z,519.5385
2023-04-09T06:44:20.670Z,513.6923
2023-04-09T06:45:22.247Z,508.5385
2023-04-09T06:46:24.033Z,518.3077
2023-04-09T06:47:25.621Z,526.3846
2023-04-09T06:48:27.930Z,527.7692
2023-04-09T06:49:28.893Z,533.9231
2023-04-09T06:50:30.557Z,533.9231
2023-04-09T06:51:32.541Z,530.0769
2023-04-09T06:52:33.937Z,530.6923
2023-04-09T06:53:35.519Z,533.0000
2023-04-09T06:54:37.991Z,529.0769
2023-04-09T06:55:38.885Z,530.0769
2023-04-09T06:56:40.962Z,527.0769
2023-04-09T06:57:42.143Z,527.5385
2023-04-09T06:58:43.837Z,530.9231
2023-04-09T06:59:45.486Z,522.4615
2023-04-09T07:00:47.089Z,527.0769
2023-04-09T07:01:49.385Z,526.5385
2023-04-09T07:02:50.673Z,518.6154
2023-04-09T07:03:52.625Z,507.8462
2023-04-09T07:04:53.729Z,515.6154
2023-04-09T07:05:55.432Z,523.5385
2023-04-09T07:06:58.150Z,512.4615
2023-04-09T07:07:58.703Z,516.4615
2023-04-09T07:09:00.461Z,519.5385
2023-04-09T07:10:02.019Z,519.7692
2023-04-09T07:11:03.669Z,526.0769
2023-04-09T07:12:05.386Z,527.3846
2023-04-09T07:13:07.495Z,524.8461
2023-04-09T07:14:08.625Z,526.0769
2023-04-09T07:15:10.318Z,526.7692
2023-04-09T07:16:11.943Z,525.5385
2023-04-09T07:17:13.634Z,525.7692
2023-04-09T07:18:15.265Z,523.7692
2023-04-09T07:19:16.777Z,525.5385
2023-04-09T07:20:18.566Z,528.9231
2023-04-09T07:21:20.165Z,520.2308
2023-04-09T07:22:22.128Z,521.0000
2023-04-09T07:23:23.577Z,515.7692
2023-04-09T07:24:25.301Z,518.6923
2023-04-09T07:25:26.778Z,505.7692
2023-04-09T07:26:28.509Z,501.4615
2023-04-09T07:27:30.101Z,502.5385
2023-04-09T07:28:31.757Z,506.8462
2023-04-09T07:29:33.586Z,513.3846
2023-04-09T07:30:35.013Z,516.3077
2023-04-09T07:31:36.619Z,516.4615
2023-04-09T07:32:38.444Z,518.0000
2023-04-09T07:33:39.957Z,524.2308
2023-04-09T07:34:41.597Z,523.3846
2023-04-09T07:35:43.216Z,520.0000
2023-04-09T07:36:44.954Z,522.0000
2023-04-09T07:37:47.003Z,525.5385
2023-04-09T07:38:48.551Z,525.5385
2023-04-09T07:39:49.888Z,527.8461
2023-04-09T07:40:51.902Z,527.1539
2023-04-09T07:41:53.148Z,525.0000
2023-04-09T07:42:54.834Z,523.1539
2023-04-09T07:43:56.565Z,521.1539
2023-04-09T07:44:58.250Z,520.3077
2023-04-09T07:45:59.853Z,515.8461
2023-04-09T07:47:01.557Z,509.9231
2023-04-09T07:48:03.510Z,503.3846
2023-04-09T07:49:04.943Z,500.3077
2023-04-09T07:50:06.351Z,501.9231
2023-04-09T07:51:08.934Z,507.0769
2023-04-09T07:52:09.666Z,514.8461
2023-04-09T07:53:12.004Z,516.6154
2023-04-09T07:54:13.094Z,517.3846
2023-04-09T07:55:15.154Z,519.4615
2023-04-09T07:56:16.223Z,520.4615
2023-04-09T07:57:17.869Z,518.9231
2023-04-09T07:58:19.613Z,518.6154
2023-04-09T07:59:21.217Z,519.6154
2023-04-09T08:00:22.856Z,521.8461
2023-04-09T08:01:24.508Z,525.6923
2023-04-09T08:02:26.364Z,518.8461
2023-04-09T08:03:28.115Z,519.3077
2023-04-09T08:04:29.487Z,518.3077
2023-04-09T08:05:31.142Z,512.6923
2023-04-09T08:06:32.737Z,513.1539
2023-04-09T08:07:34.482Z,514.7692
2023-04-09T08:08:36.103Z,510.2308
2023-04-09T08:09:37.761Z,504.0000
2023-04-09T08:10:39.368Z,504.7692
2023-04-09T08:11:40.984Z,505.0769
2023-04-09T08:12:42.706Z,502.9231
2023-04-09T08:13:44.622Z,507.6154
2023-04-09T08:14:45.940Z,516.3077
2023-04-09T08:15:47.635Z,520.3846
2023-04-09T08:16:49.372Z,520.2308
2023-04-09T08:17:51.497Z,515.6923
2023-04-09T08:18:52.932Z,514.0769
2023-04-09T08:19:54.586Z,511.5385
2023-04-09T08:20:55.839Z,512.0769
2023-04-09T08:21:57.567Z,512.6154
2023-04-09T08:22:59.207Z,514.1539
2023-04-09T08:24:00.833Z,513.8461
2023-04-09T08:25:03.537Z,514.3846
2023-04-09T08:26:04.073Z,514.4615
2023-04-09T08:27:05.748Z,507.4615
2023-04-09T08:28:07.410Z,509.9231
2023-04-09T08:29:09.109Z,507.1538
2023-04-09T08:30:10.730Z,502.9231
2023-04-09T08:31:12.448Z,499.2308
2023-04-09T08:32:14.045Z,500.6923
2023-04-09T08:33:15.641Z,501.5385
2023-04-09T08:34:17.584Z,503.1538
2023-04-09T08:35:19.058Z,507.3846
2023-04-09T08:36:21.593Z,511.3077
2023-04-09T08:37:22.419Z,514.5385
2023-04-09T08:38:24.094Z,516.9231
2023-04-09T08:39:25.792Z,518.4615
2023-04-09T08:40:27.581Z,522.3846
2023-04-09T08:41:28.944Z,522.2308
2023-04-09T08:42:30.545Z,521.4615
2023-04-09T08:43:52.531Z,518.3846
2023-04-09T08:44:33.963Z,516.8333
2023-04-09T08:45:35.604Z,516.6923
2023-04-09T08:46:37.147Z,521.4615
2023-04-09T08:47:38.934Z,515.5385
2023-04-09T08:48:40.586Z,510.9231
2023-04-09T08:49:43.034Z,508.6154
2023-04-09T08:50:43.767Z,501.6923
2023-04-09T08:51:45.450Z,500.5385
2023-04-09T08:52:47.132Z,497.0000
2023-04-09T08:53:48.723Z,493.4615
2023-04-09T08:54:50.447Z,502.1538
2023-04-09T08:55:53.152Z,506.0769
2023-04-09T08:56:53.812Z,507.6154
2023-04-09T08:57:56.094Z,510.8462
2023-04-09T08:58:57.139Z,513.5385
2023-04-09T08:59:59.121Z,514.2308
2023-04-09T09:01:00.488Z,516.2308
2023-04-09T09:02:02.087Z,511.6923
2023-04-09T09:03:03.824Z,508.0000
2023-04-09T09:04:05.380Z,511.0000
2023-04-09T09:05:07.163Z,517.3077
2023-04-09T09:06:08.646Z,518.3077
2023-04-09T09:07:10.376Z,516.7692
2023-04-09T09:08:12.607Z,517.0769
2023-04-09T09:09:13.576Z,519.7692
2023-04-09T09:10:15.714Z,519.3846
2023-04-09T09:11:16.933Z,513.0769
2023-04-09T09:12:18.654Z,508.6923
2023-04-09T09:13:20.266Z,503.0000
2023-04-09T09:14:21.947Z,499.6154
2023-04-09T09:15:23.714Z,501.0000
2023-04-09T09:16:25.187Z,503.1538
2023-04-09T09:17:26.947Z,502.8462
2023-04-09T09:18:28.521Z,503.6154
2023-04-09T09:19:30.656Z,505.9231
2023-04-09T09:20:32.326Z,513.2308
2023-04-09T09:21:33.591Z,514.0769
2023-04-09T09:22:35.148Z,512.2308
2023-04-09T09:23:36.880Z,515.6154
2023-04-09T09:24:38.494Z,518.6154
2023-04-09T09:25:40.128Z,515.5385
2023-04-09T09:26:41.850Z,513.6154
2023-04-09T09:27:43.402Z,513.8461
2023-04-09T09:28:45.050Z,514.2308
2023-04-09T09:29:46.714Z,513.6923
2023-04-09T09:30:49.526Z,513.1539
2023-04-09T09:31:50.079Z,513.8461
2023-04-09T09:32:51.765Z,517.0000
2023-04-09T09:33:53.308Z,504.8462
2023-04-09T09:34:54.874Z,496.1538
2023-04-09T09:35:56.730Z,493.6923
2023-04-09T09:36:58.268Z,504.0769
2023-04-09T09:37:59.954Z,493.1538
2023-04-09T09:39:01.586Z,493.1538
2023-04-09T09:40:03.180Z,498.9231
2023-04-09T09:41:04.878Z,501.9231
2023-04-09T09:42:06.482Z,504.6923
2023-04-09T09:43:08.205Z,505.5385
2023-04-09T09:44:09.701Z,503.2308
2023-04-09T09:45:11.454Z,504.8462
2023-04-09T09:46:13.231Z,508.3077
2023-04-09T09:47:14.836Z,507.6923
2023-04-09T09:48:16.501Z,511.3077
2023-04-09T09:49:18.112Z,512.3077
2023-04-09T09:50:19.693Z,511.2308
2023-04-09T09:51:21.394Z,509.0769
2023-04-09T09:52:23.084Z,507.7692
2023-04-09T09:53:24.665Z,506.0769
2023-04-09T09:54:26.365Z,506.8462
2023-04-09T09:55:28.144Z,503.2308
2023-04-09T09:56:29.792Z,496.3846
2023-04-09T09:57:31.421Z,495.4615
2023-04-09T09:58:33.094Z,494.2308
2023-04-09T09:59:34.674Z,493.3846
2023-04-09T10:00:36.359Z,493.5385
2023-04-09T10:01:38.148Z,495.3077
2023-04-09T10:02:39.699Z,500.7692
2023-04-09T10:03:41.372Z,511.3846
2023-04-09T10:04:43.068Z,511.0769
2023-04-09T10:05:44.583Z,510.2308
2023-04-09T10:06:46.354Z,506.6923
2023-04-09T10:07:47.885Z,506.3077
2023-04-09T10:08:49.710Z,508.3077
2023-04-09T10:09:51.214Z,505.6923
2023-04-09T10:10:52.991Z,508.0000
2023-04-09T10:11:54.670Z,510.0769
2023-04-09T10:12:56.476Z,509.1538
2023-04-09T10:13:57.795Z,510.8462
2023-04-09T10:14:59.510Z,508.3077
2023-04-09T10:16:01.144Z,504.0769
2023-04-09T10:17:02.856Z,501.0769
2023-04-09T10:18:04.475Z,496.1538
2023-04-09T10:19:06.075Z,487.6154
2023-04-09T10:20:07.722Z,490.6154
2023-04-09T10:21:09.369Z,488.7692
2023-04-09T10:22:11.052Z,500.8462
2023-04-09T10:23:13.215Z,499.2308
2023-04-09T10:24:14.278Z,505.3077
2023-04-09T10:25:15.984Z,509.0000
2023-04-09T10:26:17.716Z,507.6154
2023-04-09T10:27:19.390Z,507.5385
2023-04-09T10:28:20.963Z,505.6923
2023-04-09T10:29:22.650Z,506.5385
2023-04-09T10:30:24.220Z,509.2308
2023-04-09T10:31:25.908Z,508.5385
2023-04-09T10:32:28.604Z,506.5385
2023-04-09T10:33:29.245Z,508.9231
2023-04-09T10:34:30.939Z,509.6923
2023-04-09T10:35:32.475Z,511.3846
2023-04-09T10:36:34.165Z,509.3846
2023-04-09T10:37:35.873Z,505.7692
2023-04-09T10:38:37.471Z,498.3846
2023-04-09T10:39:39.161Z,494.0769
2023-04-09T10:40:40.735Z,495.1538
2023-04-09T10:41:42.442Z,492.4615
2023-04-09T10:42:44.143Z,496.3846
2023-04-09T10:43:45.751Z,500.6154
2023-04-09T10:44:47.415Z,502.4615
2023-04-09T10:45:49.061Z,504.5385
2023-04-09T10:46:50.803Z,504.1538
2023-04-09T10:47:52.842Z,503.3077
2023-04-09T10:48:54.131Z,501.8462
2023-04-09T10:49:55.708Z,499.3846
2023-04-09T10:50:57.322Z,500.7692
2023-04-09T10:51:59.000Z,506.7692
2023-04-09T10:53:00.735Z,512.0769
2023-04-09T10:54:02.298Z,509.4615
2023-04-09T10:55:03.913Z,509.8462
2023-04-09T10:56:05.562Z,505.3077
2023-04-09T10:57:07.307Z,503.6154
2023-04-09T10:58:11.296Z,503.2308
2023-04-09T10:59:10.595Z,501.6154
2023-04-09T11:00:12.541Z,497.0000
2023-04-09T11:01:13.851Z,490.9231
2023-04-09T11:02:15.564Z,490.3077
2023-04-09T11:03:17.370Z,485.3077
2023-04-09T11:04:18.648Z,486.4615
2023-04-09T11:05:20.320Z,487.6154
2023-04-09T11:06:21.984Z,489.1538
2023-04-09T11:07:23.692Z,492.9231
2023-04-09T11:08:25.313Z,496.7692
2023-04-09T11:09:26.910Z,499.1538
2023-04-09T11:10:28.578Z,500.0769
2023-04-09T11:11:30.241Z,504.6923
2023-04-09T11:12:31.878Z,503.3846
2023-04-09T11:13:33.541Z,500.6154
2023-04-09T11:14:35.180Z,500.5385
2023-04-09T11:15:36.826Z,497.6154
2023-04-09T11:16:38.664Z,498.0769
2023-04-09T11:17:40.277Z,495.1538
2023-04-09T11:18:42.172Z,495.8462
2023-04-09T11:19:43.504Z,496.8462
2023-04-09T11:20:45.078Z,496.4615
2023-04-09T11:21:46.817Z,493.4615
2023-04-09T11:22:48.419Z,488.6923
2023-04-09T11:23:50.155Z,483.3846
2023-04-09T11:24:51.770Z,483.3846
2023-04-09T11:25:53.368Z,487.4615
2023-04-09T11:26:55.092Z,487.4615
2023-04-09T11:27:56.647Z,491.8462
2023-04-09T11:28:59.145Z,493.4615
2023-04-09T11:30:00.134Z,495.9231
2023-04-09T11:31:01.794Z,498.5385
2023-04-09T11:32:03.262Z,498.4615
2023-04-09T11:33:05.129Z,499.0000
2023-04-09T11:34:06.667Z,505.8462
2023-04-09T11:35:08.243Z,504.0769
2023-04-09T11:36:09.854Z,499.5385
2023-04-09T11:37:11.546Z,494.0769
2023-04-09T11:38:14.048Z,496.5385
2023-04-09T11:39:15.145Z,496.8462
2023-04-09T11:40:16.540Z,498.6154
2023-04-09T11:41:18.188Z,502.0769
2023-04-09T11:42:19.755Z,496.2308
2023-04-09T11:43:21.459Z,490.6923
2023-04-09T11:44:23.701Z,482.6923
2023-04-09T11:45:24.722Z,481.0769
2023-04-09T11:46:27.456Z,482.8462
2023-04-09T11:47:28.045Z,490.5385
2023-04-09T11:48:29.784Z,491.3846
2023-04-09T11:49:32.245Z,491.0769
2023-04-09T11:50:33.027Z,490.6154
2023-04-09T11:51:34.749Z,494.6923
2023-04-09T11:52:36.452Z,499.0769
2023-04-09T11:53:38.073Z,500.7692
2023-04-09T11:54:39.740Z,497.8462
2023-04-09T11:55:41.378Z,497.8462
2023-04-09T11:56:43.075Z,496.1538
2023-04-09T11:57:44.681Z,495.1538
2023-04-09T11:58:46.327Z,495.9231
2023-04-09T11:59:48.129Z,500.0000
2023-04-09T12:00:49.676Z,498.1538
2023-04-09T12:01:51.515Z,496.8462
2023-04-09T12:02:53.301Z,495.0769
2023-04-09T12:03:54.675Z,497.4615